Preview of NWS' New Version of Forecast
This preview is not operational and should not be used for support decisions.
Latest weather observations around

Williamsburg-Whitley County Airport (KBYL)

Using International System of Units (Switch to English Units)
Date/ Time (EDT) Wind (kph) Vis. (km) Weather Sky Cond. Temp (°C) Rel. Humidity Wind Chill (°C) Heat Index (°C) Pressure Precip. (cm)
Air Dwpt 6 hour Altimeter (hPa) Sea level (hPa) 1 hr 3 hr 6 hr
Max Min
Aug 20 12:15 SSE 9 16.09 Clear   30 21     59%   33 1021        
Aug 20 11:55 SW 7 16.09 Clear   30 22     62%   33 1021.33        
Aug 20 11:35 SW 9 16.09 Clear   29 22     66%   32 1021.33        
Aug 20 11:15 SW 7 16.09 Clear   29 22     66%   32 1021.33        
Aug 20 10:55 WSW 7 16.09 Clear   28 21     66%   30 1021.33        
Aug 20 10:35 W 6 16.09 Clear   28 22     70%   31 1021        
Aug 20 10:15 Calm 16.09 Clear   27 22     74%   29 1021        
Aug 20 09:55 SE 6 16.09 Clear   26 22     79%   28 1020.32        
Aug 20 09:35 ESE 6 16.09 Clear   25 22     83%   26 1020.32        
Aug 20 09:15 S 6 16.09 Clear   24 22     89%   25 1019.98        
Aug 20 08:55 SE 7 16.09 Clear   23 22     94%   24 1019.98        
Aug 20 08:35 SE 6 16.09 Clear   23 23     100%   24 1020.32        
Aug 20 08:15 Calm 16.09 Clear   22 22     100%   23 1020.32        
Aug 20 07:55 ESE 6 14.48 Clear   21 21     100%     1020.32        
Aug 20 07:35 SSE 6 12.88 Clear   20 20     100%     1020.32        
Aug 20 07:15 SE 6 8.05 Clear   20 20     100%     1020.32        
Aug 20 06:55 Calm 2.82 Clear   20 20     100%     1019.98        
Aug 20 06:35 Calm 6.44 Clear   20 20     100%     1019.98        
Aug 20 06:15 Calm 8.05 Clear CLR 20 20     100%     1019.98        
Aug 20 05:55 Calm 16.09 Clear   21 21     100%     1019.98        
Aug 20 05:35 S 6 14.48 Clear   21 21     100%     1019.98        
Aug 20 05:15 Calm 11.27 Clear   20 20     100%     1019.98        
Aug 20 04:55 Calm 9.66 Clear   20 20     100%     1019.64        
Aug 20 04:35 Calm 8.05 Clear   20 20     100%     1019.64        
Aug 20 04:15 Calm 16.09 Clear   21 21     100%     1019.3        
Aug 20 03:55 Calm 9.66 Clear   21 21     100%     1019.3        
Aug 20 03:35 Calm 14.48 Clear   21 21     100%     1019.64        
Aug 20 03:15 Calm 9.66 Clear   20 20     100%     1019.3        
Aug 20 02:55 Calm 14.48 Clear   21 21     100%     1019.3        
Aug 20 02:35 Calm 14.48 Clear   21 21     100%     1018.96        
Aug 20 02:15 NW 6 8.05 Clear   21 21     100%     1019.3        
Aug 20 01:55 Calm 12.88 Clear   22 22     100%   23 1019.3        
Aug 20 01:35 Calm 16.09 Clear   22 22     100%   23 1018.96        
Aug 20 01:15 Calm 16.09 Clear   22 22     100%   23 1019.3        
Aug 20 00:55 Calm 16.09 Clear CLR 23 23     100%   24 1019.3        
Aug 20 00:35 Calm 16.09 Clear   22 22     100%   23 1019.3        
Aug 20 00:15 Calm 16.09 Clear   23 23     100%   24 1019.64        
Aug 19 23:55 Calm 16.09 Clear   23 23     100%   24 1019.64        
Aug 19 23:35 Calm 16.09 Clear   23 23     100%   24 1019.64        
Aug 19 22:55 Calm 16.09 Clear   24 23     94%   25 1019.64        
Aug 19 22:35 Calm 16.09 Clear   24 23     94%   25 1019.3        
Aug 19 22:15 Calm 16.09 Clear   25 23     89%   26 1018.96        
Aug 19 21:55 Calm 16.09 Clear   26 23     84%   28 1018.63        
Aug 19 21:35 Calm 16.09 Clear   25 23     89%   26 1018.29        
Aug 19 21:15 Calm 16.09 Clear   27 22     74%   29 1017.95        
Aug 19 20:55 Calm 16.09 Clear   27 22     74%   29 1017.95        
Aug 19 20:35 Calm 16.09 Clear   29 22     66%   32 1017.61        
Aug 19 20:15 SSE 6 16.09 Clear   30 20     55%   32 1017.61        
Aug 19 19:55 Calm 16.09 Clear   31 20     52%   33 1017.27        
Aug 19 19:35 Calm 16.09 Clear   32 20     49%   34 1017.27        
Aug 19 19:15 SSE 6 16.09 Clear   32 20     49%   34 1017.27        
Aug 19 18:55 SE 7 16.09 Clear   32 19     46%   33 1017.27        
Aug 19 18:35 SE 7 16.09 Clear   33 20     46%   35 1017.27        
Aug 19 18:15 SE 6 16.09 Clear   33 20     46%   35 1017.27        
Aug 19 17:55 E 9 16.09 Clear   33 20     46%   35 1017.61        
Aug 19 17:35 ESE 9 16.09 Clear   33 20     46%   35 1017.61        
Aug 19 17:15 ESE 7 16.09 Clear   32 21     52%   35 1017.27        
Aug 19 16:55 E 7 16.09 Clear   31 20     52%   33 1017.61        
Aug 19 16:35 NE 7 16.09 Clear   31 20     52%   33 1017.61        
Aug 19 16:15 NE 13 16.09 Clear   33 20     46%   35 1017.61        
Aug 19 15:55 Calm 16.09 Mostly Clear FEW060 33 20     46%   35 1017.95        
Aug 19 15:35 WSW 6 16.09 Clear   34 20     44%   36 1018.29        
Aug 19 15:15 S 15 16.09 Clear   33 19     44%   35 1018.29        
Aug 19 14:55 SW 9 16.09 Clear   33 19     44%   35 1018.63        
Aug 19 14:35 Calm 16.09 Clear   34 19     41%   36 1018.96        
Aug 19 14:15 WSW 9 16.09 Clear   33 20     46%   35 1018.96        
Aug 19 13:55 W 7 16.09 Clear   33 20     46%   35 1019.3        
Aug 19 13:35 S 6 16.09 Clear   33 19     44%   35 1019.3        
Aug 19 13:15 Calm 16.09 Clear   32 19     46%   33 1019.64        
Aug 19 12:55 W 6 16.09 Clear CLR 31 20     52%   33 1019.64        
Aug 19 12:35 Calm 16.09 Clear   31 20     52%   33 1019.64        
Aug 19 12:15 ENE 7 16.09 Clear   31 20     52%   33 1019.64        
Aug 19 11:55 Calm 16.09 Clear   30 21     59%   33 1019.64        
Aug 19 11:35 W 6 16.09 Clear   29 21     62%   31 1019.98        
Aug 19 11:15 Calm 16.09 Clear   28 21     66%   30 1019.98        
Aug 19 10:55 Calm 16.09 Clear CLR 28 21     66%   30 1019.98        
Aug 19 10:35 Calm 16.09 Clear   27 21     70%   29 1019.98        
Aug 19 10:15 Calm 16.09 Clear   26 21     74%   27 1019.98        
Aug 19 09:55 Calm 16.09 Clear CLR 24 22     89%   25 1019.64        
Aug 19 09:35 Calm 16.09 Clear   24 22     89%   25 1019.64        
Aug 19 09:15 Calm 16.09 Clear   23 22     94%   24 1019.64        
Aug 19 08:55 Calm 16.09 Clear   22 22     100%   23 1019.3        
Aug 19 08:35 Calm 16.09 Clear CLR 22 22     100%   23 1019.3        
Aug 19 08:15 Calm 16.09 Clear   22 22     100%   23 1018.96        
Aug 19 07:55 SE 6 16.09 Clear CLR 21 21     100%     1018.96        
Aug 19 07:35 Calm 16.09 Clear   20 20     100%     1018.63        
Aug 19 07:15 Calm 16.09 Clear   20 20     100%     1018.63        
Aug 19 06:55 Calm 16.09 Clear   20 20     100%     1018.29        
Aug 19 06:35 Calm 16.09 Clear   20 20     100%     1018.29        
Aug 19 06:15 Calm 16.09 Clear   20 20     100%     1018.29        
Aug 19 05:55 Calm 16.09 Clear   20 20     100%     1017.95        
Aug 19 05:35 Calm 16.09 Clear   20 20     100%     1017.95        
Aug 19 05:15 Calm 16.09 Mostly Clear FEW065 21 21     100%     1017.95        
Aug 19 04:55 Calm 16.09 Clear   21 21     100%     1017.61        
Aug 19 04:35 Calm 16.09 Clear   21 21     100%     1017.61        
Aug 19 04:15 Calm 16.09 Clear   21 21     100%     1017.61        
Aug 19 03:55 Calm 16.09 Clear   21 21     100%     1017.27        
Aug 19 03:35 SE 6 16.09 Clear   21 21     100%     1017.27        
Aug 19 03:15 SSE 6 16.09 Clear   21 21     100%     1017.27        
Aug 19 02:55 Calm 16.09 Clear   21 21     100%     1017.27        
Aug 19 02:35 Calm 16.09 Clear   20 20     100%     1017.27        
Aug 19 02:15 Calm 16.09 Clear   21 21     100%     1017.27        
Aug 19 01:55 Calm 16.09 Clear   21 21     100%     1017.27        
Aug 19 01:35 Calm 16.09 Clear   22 22     100%   23 1017.27        
Aug 19 01:15 Calm 16.09 Clear   21 21     100%     1016.93        
Aug 19 00:55 Calm 16.09 Clear CLR 22 22     100%   23 1017.27        
Aug 19 00:35 Calm 16.09 Clear CLR 22 22     100%   23 1017.27        
Aug 19 00:15 Calm 16.09 Clear   22 22     100%   23 1016.93        
Aug 18 23:55 Calm 16.09 Clear   23 22     94%   24 1016.93        
Aug 18 23:35 Calm 16.09 Clear   23 22     94%   24 1016.93        
Aug 18 23:15 Calm 16.09 Clear   23 23     100%   24 1016.93        
Aug 18 22:55 Calm 16.09 Clear   23 22     94%   24 1016.59        
Aug 18 22:35 Calm 16.09 Clear   24 22     89%   25 1016.26        
Aug 18 22:15 Calm 16.09 Clear   24 23     94%   25 1016.59        
Aug 18 21:55 SE 6 16.09 Clear   24 23     94%   25 1016.26        
Aug 18 21:35 Calm 16.09 Clear   25 22     83%   26 1016.26        
Aug 18 21:15 Calm 16.09 Clear   25 22     83%   26 1016.26        
Aug 18 20:55 Calm 16.09 Clear   25 22     83%   26 1015.92        
Aug 18 20:35 Calm 16.09 Clear   26 22     79%   28 1015.58        
Aug 18 20:15 Calm 16.09 Clear   28 21     66%   30 1015.92        
Aug 18 19:55 SSE 6 16.09 Clear   28 21     66%   30 1015.92        
Aug 18 19:35 SSE 9 16.09 Clear   29 20     58%   31 1015.92        
Aug 18 19:15 SSE 7 16.09 Clear   29 20     58%   31 1015.92        
Aug 18 18:55 SSE 7 16.09 Clear   29 20     58%   31 1015.92        
Aug 18 18:35 SSE 9 16.09 Clear CLR 32 18     43%   33 1015.58        
Aug 18 18:15 S 11 16.09 Clear   32 17     41%   32 1015.58        
Aug 18 17:55   16.09 Clear   30 19     52%   31 1015.92        
Aug 18 17:35 S 13 16.09 Clear   32 19     46%   33 1015.92        
Aug 18 17:15 SSW 15 16.09 Clear   34 17     36%   35 1015.92        
Aug 18 16:55 S 6 16.09 Clear   33 15     34%   33 1015.58        
Aug 18 16:35 WSW 9 16.09 Clear   34 16     34%   34 1015.92        
Aug 18 16:15 WSW 11 16.09 Clear   34 16     34%   34 1016.26        
Aug 18 15:55 Calm 16.09 Clear   34 17     36%   35 1016.26        
Aug 18 15:35 S 6 16.09 Clear CLR 35 16     32%   35 1016.59        
Aug 18 15:15 NW 13 16.09 Clear   34 17     36%   35 1016.93        
Aug 18 14:55 W 13 16.09 Clear   34 17     36%   35 1017.27        
Aug 18 14:35 WSW 7 16.09 Clear   34 17     36%   35 1017.27        
Aug 18 14:15 W 11 16.09 Clear   33 16     36%   33 1017.61        
Aug 18 13:55 W 9 16.09 Clear   33 17     38%   33 1017.95        
Aug 18 13:35 Calm 16.09 Clear   33 18     41%   34 1017.95        
Aug 18 13:15 SE 7 16.09 Clear   33 19     44%   35 1017.95        
Aug 18 12:55 S 11 16.09 Clear CLR 32 19     46%   33 1017.95        
Aug 18 12:35 WSW 7 16.09 Clear   32 19     46%   33 1018.29        
Aug 18 12:15 SSW 9 16.09 Clear   30 19     52%   31 1018.29        
Aug 18 11:55 WSW 9 16.09 Clear CLR 30 19     52%   31 1018.63        
Aug 18 11:35 SSW 6 16.09 Clear   30 20     55%   32 1018.29        
Aug 18 11:15 Calm 16.09 Clear   28 20     62%   30 1018.29        
Aug 18 10:55 Calm 16.09 Clear   28 20     62%   30 1018.29        
Aug 18 10:35 Calm 16.09 Clear   28 20     62%   30 1018.29        
Aug 18 10:15 Calm 16.09 Clear   26 20     70%   26 1018.29        
Aug 18 09:55 Calm 16.09 Clear CLR 25 20     74%   25 1017.95        
Aug 18 09:35 Calm 16.09 Clear CLR 24 21     83%   25 1017.95        
Aug 18 09:15 Calm 16.09 Clear   23 20     83%   24 1017.95        
Aug 18 08:55 Calm 16.09 Clear CLR 22 21     94%   23 1017.95        
Aug 18 08:35 Calm 16.09 Clear   20 20     100%     1017.61        
Aug 18 08:15 Calm 16.09 Clear   20 20     100%     1017.61        
Aug 18 07:55 Calm 16.09 Clear   19 19     100%     1017.61        
Aug 18 07:35 Calm 8.05 Clear   18 18     100%     1017.61        
Aug 18 07:15 Calm 4.83 Clear   18 18     100%     1016.93        
Aug 18 06:55 Calm 14.48 Clear   19 19     100%     1016.59        
Aug 18 06:35 Calm 16.09 Clear   19 19     100%     1016.59        
Aug 18 06:15 Calm 16.09 Clear CLR 19 19     100%     1016.59        
Aug 18 05:55 SE 9 16.09 Clear   19 19     100%     1016.59        
Aug 18 05:35 Calm 16.09 Clear   19 19     100%     1016.26        
Aug 18 05:15 Calm 16.09 Clear   19 19     100%     1016.26        
Aug 18 04:55 Calm 16.09 Clear   19 19     100%     1016.26        
Aug 18 04:35 Calm 12.88 Clear   19 19     100%     1016.26        
Aug 18 04:15 Calm 16.09 Clear   19 19     100%     1016.26        
Aug 18 03:55 Calm 16.09 Clear   19 19     100%     1016.26        
Aug 18 03:35 S 6 16.09 Clear   20 20     100%     1015.92        
Aug 18 03:15 Calm 16.09 Clear   20 20     100%     1015.92        
Aug 18 02:55 Calm 12.88 Clear   19 19     100%     1015.92        
Aug 18 02:35 Calm 16.09 Clear   19 19     100%     1016.26        
Aug 18 02:15 Calm 16.09 Clear   20 20     100%     1016.59        
Aug 18 01:55 S 7 16.09 Clear   20 20     100%     1016.59        
Aug 18 01:35 Calm 16.09 Clear   20 20     100%     1016.93        
Aug 18 01:15 Calm 16.09 Clear   20 20     100%     1017.27        
Aug 18 00:55 Calm 16.09 Clear   21 21     100%     1017.27        
Aug 18 00:35 Calm 16.09 Clear   20 20     100%     1017.27        
Aug 18 00:15 Calm 16.09 Clear   20 20     100%     1017.27        
Aug 17 23:55 Calm 16.09 Clear   22 22     100%   23 1017.27        
Aug 17 23:35 SSE 6 16.09 Clear   22 22     100%   23 1017.27        
Aug 17 23:15 Calm 16.09 Clear   21 21     100%     1017.27        
Aug 17 22:55 Calm 16.09 Clear   22 22     100%   23 1016.93        
Aug 17 22:35 Calm 16.09 Clear   22 22     100%   23 1016.59        
Aug 17 22:15 Calm 16.09 Clear   23 21     89%   24 1016.93        
Aug 17 21:55 Calm 16.09 Clear   25 20     74%   25 1016.59        
Aug 17 21:35 Calm 16.09 Clear   24 20     78%   25 1016.59        
Aug 17 21:15 Calm 16.09 Clear   25 20     74%   25 1016.59        
Aug 17 20:55 Calm 16.09 Clear   26 20     70%   26 1016.26        
Aug 17 20:35 Calm 16.09 Clear CLR 28 19     58%   29 1016.26        
Aug 17 20:15 Calm 16.09 Clear   28 19     58%   29 1015.92        
Aug 17 19:55 Calm 16.09 Clear   29 19     55%   30 1015.92        
Aug 17 19:35 S 7 16.09 Clear   29 19     55%   30 1015.58        
Aug 17 19:15 SSE 7 16.09 Clear   30 19     52%   31 1015.92        
Aug 17 18:55 SSE 9 16.09 Clear   31 19     49%   32 1015.92        
Aug 17 18:35 SSE 9 16.09 Mostly Clear FEW055 32 18     43%   33 1015.92        
Aug 17 18:15 Calm 16.09 Clear   32 18     43%   33 1016.26        
Aug 17 17:55 Calm 16.09 Mostly Clear FEW065 32 17     41%   32 1016.26        
Aug 17 17:35 SSW 6 16.09 Clear   32 18     43%   33 1016.26        
Aug 17 17:15 Calm 16.09 Clear   32 18     43%   33 1016.26        
Aug 17 16:55 W 6 16.09 Clear   32 17     41%   32 1016.26        
Aug 17 16:35 WNW 7 16.09 Clear   32 17     41%   32 1016.26        
Aug 17 16:15 SW 6 16.09 Clear   32 17     41%   32 1016.26        
Aug 17 15:55 ENE 6 16.09 Clear   32 17     41%   32 1016.59        
Aug 17 15:35 WNW 6 16.09 Clear   32 17     41%   32 1016.59        
Aug 17 15:15 WSW 6 16.09 Clear   32 18     43%   33 1016.59        
Aug 17 14:55 Calm 16.09 Clear CLR 32 17     41%   32 1016.93        
Aug 17 14:35 NW 13 16.09 Clear   31 17     43%   31 1017.27        
Aug 17 14:15 Calm 16.09 Clear   30 18     49%   31 1017.61        
Aug 17 13:55 Calm 16.09 Clear CLR 31 18     46%   32 1017.61        
Aug 17 13:35 WNW 7 16.09 Clear   31 18     46%   32 1017.95        
Aug 17 13:15 Calm 16.09 Clear   30 18     49%   31 1018.29        
Aug 17 12:55 SSW 6 16.09 Clear   30 18     49%   31 1018.63        
Aug 17 12:35 W 6 16.09 Clear   30 18     49%   31 1018.96        
Aug 17 12:15 SW 6 16.09 Clear   29 17     48%   29 1018.63        
Aug 17 11:55 WSW 7 16.09 Clear   29 18     52%   30 1018.63        
Aug 17 11:35 Calm 16.09 Clear   28 19     58%   29 1018.63        
Aug 17 11:15 E 6 16.09 Clear CLR 28 19     58%   29 1018.63        
May 15 12:15 SSW 7 16.09 Clear   29 20     58%   31 1016.26        
May 15 11:15 SSW 9 16.09 Clear   27 20     66%   28 1016.59        
May 15 07:55 Calm 16.09 Clear   19 19     100%     1016.59        
May 14 20:35 Calm 16.09 Clear   27 19     62%   28 1014.9        
May 14 18:55 S 6 16.09 Clear   29 18     52%   30 1015.24        
Notice The following observation data may not be complete
May 14 17:55   16.09 Clear            %              
May 14 12:35 N 6 16.09 Clear   28 18     55%   29 1019.3        
May 13 23:35 Calm 16.09 Clear   20 18     88%     1019.64        
May 13 21:35 Calm 16.09 Clear   24 16     61%   24 1018.29        
May 13 20:35 WNW 7 16.09 Clear   26 16     54%   26 1017.95        
May 13 13:55 W 9 16.09 Clear   29 16     45%   29 1019.64        
May 13 09:15 Calm 14.48 Clear   19 18     94%     1021.67        
May 13 08:15 Calm 14.48 Clear   16 16     100%     1021.33        
May 13 02:35 Calm 12.88 Clear   15 15     100%     1019.64        
May 12 16:55 WNW 13 16.09 Clear   29 14     40%   29 1019.3        
May 12 11:55 WSW 11 16.09 Clear   27 15     48%   27 1022.35        
May 12 09:55 SSW 9 16.09 Clear   24 17     65%   24 1022.35        
May 12 03:55 Calm 16.09 Clear   17 17     100%     1019.64        
May 12 01:15 SSE 11 16.09 Clear   18 17     94%     1019.3        
May 11 22:15 Calm 16.09 Clear   22 15     65%   22 1018.63        
May 11 14:35 SW 13 16.09 Clear   29 16     45%   29 1018.96